sensor_id;sensor_type;location;lat;lon;timestamp;temperature;humidity
73322;DHT22;61549;37.044;22.128;2022-08-21T00:00:54;30.60;50.10
73322;DHT22;61549;37.044;22.128;2022-08-21T00:03:20;30.60;50.80
73322;DHT22;61549;37.044;22.128;2022-08-21T00:05:50;30.60;51.10
73322;DHT22;61549;37.044;22.128;2022-08-21T00:08:20;30.60;51.20
73322;DHT22;61549;37.044;22.128;2022-08-21T00:10:46;30.60;50.20
73322;DHT22;61549;37.044;22.128;2022-08-21T00:13:13;30.60;50.60
73322;DHT22;61549;37.044;22.128;2022-08-21T00:15:40;30.60;50.00
73322;DHT22;61549;37.044;22.128;2022-08-21T00:18:08;30.50;50.30
73322;DHT22;61549;37.044;22.128;2022-08-21T00:20:35;30.50;50.30
73322;DHT22;61549;37.044;22.128;2022-08-21T00:23:01;30.50;49.90
73322;DHT22;61549;37.044;22.128;2022-08-21T00:25:27;30.40;49.90
73322;DHT22;61549;37.044;22.128;2022-08-21T00:27:54;30.30;49.90
73322;DHT22;61549;37.044;22.128;2022-08-21T00:30:22;30.30;49.80
73322;DHT22;61549;37.044;22.128;2022-08-21T00:32:49;30.30;49.90
73322;DHT22;61549;37.044;22.128;2022-08-21T00:35:18;30.20;50.00
73322;DHT22;61549;37.044;22.128;2022-08-21T00:37:44;30.20;50.30
73322;DHT22;61549;37.044;22.128;2022-08-21T00:40:16;30.20;50.20
73322;DHT22;61549;37.044;22.128;2022-08-21T00:42:42;30.20;50.70
73322;DHT22;61549;37.044;22.128;2022-08-21T00:45:10;30.00;50.30
73322;DHT22;61549;37.044;22.128;2022-08-21T00:47:36;30.00;50.40
73322;DHT22;61549;37.044;22.128;2022-08-21T00:50:04;30.00;50.80
73322;DHT22;61549;37.044;22.128;2022-08-21T00:52:32;29.90;50.70
73322;DHT22;61549;37.044;22.128;2022-08-21T00:55:00;29.90;50.90
73322;DHT22;61549;37.044;22.128;2022-08-21T00:57:30;29.90;51.00
73322;DHT22;61549;37.044;22.128;2022-08-21T00:59:59;29.90;51.10
73322;DHT22;61549;37.044;22.128;2022-08-21T01:02:26;29.90;51.20
73322;DHT22;61549;37.044;22.128;2022-08-21T01:04:53;29.90;51.30
73322;DHT22;61549;37.044;22.128;2022-08-21T01:07:19;29.80;51.10
73322;DHT22;61549;37.044;22.128;2022-08-21T01:09:46;29.80;51.00
73322;DHT22;61549;37.044;22.128;2022-08-21T01:12:14;29.70;51.10
73322;DHT22;61549;37.044;22.128;2022-08-21T01:14:41;29.60;51.40
73322;DHT22;61549;37.044;22.128;2022-08-21T01:17:10;29.60;51.70
73322;DHT22;61549;37.044;22.128;2022-08-21T01:19:36;29.60;52.00
73322;DHT22;61549;37.044;22.128;2022-08-21T01:22:02;29.50;52.00
73322;DHT22;61549;37.044;22.128;2022-08-21T01:24:28;29.50;51.90
73322;DHT22;61549;37.044;22.128;2022-08-21T01:26:54;29.40;52.00
73322;DHT22;61549;37.044;22.128;2022-08-21T01:32:17;29.30;52.40
73322;DHT22;61549;37.044;22.128;2022-08-21T01:34:45;29.30;52.40
73322;DHT22;61549;37.044;22.128;2022-08-21T01:37:13;29.20;52.10
73322;DHT22;61549;37.044;22.128;2022-08-21T01:39:40;29.20;52.10
73322;DHT22;61549;37.044;22.128;2022-08-21T01:42:06;29.20;52.40
73322;DHT22;61549;37.044;22.128;2022-08-21T01:44:32;29.10;52.40
73322;DHT22;61549;37.044;22.128;2022-08-21T01:47:00;29.10;52.80
73322;DHT22;61549;37.044;22.128;2022-08-21T01:49:26;29.00;52.90
73322;DHT22;61549;37.044;22.128;2022-08-21T01:51:53;28.90;52.90
73322;DHT22;61549;37.044;22.128;2022-08-21T01:54:19;28.90;52.90
73322;DHT22;61549;37.044;22.128;2022-08-21T01:56:47;28.90;53.00
73322;DHT22;61549;37.044;22.128;2022-08-21T01:59:14;28.90;53.00
73322;DHT22;61549;37.044;22.128;2022-08-21T02:01:40;28.90;53.30
73322;DHT22;61549;37.044;22.128;2022-08-21T02:04:08;28.90;53.50
73322;DHT22;61549;37.044;22.128;2022-08-21T02:06:34;28.90;53.70
73322;DHT22;61549;37.044;22.128;2022-08-21T02:09:06;28.90;53.90
73322;DHT22;61549;37.044;22.128;2022-08-21T02:11:33;28.90;53.90
73322;DHT22;61549;37.044;22.128;2022-08-21T02:13:59;29.00;54.00
73322;DHT22;61549;37.044;22.128;2022-08-21T02:16:25;28.90;54.00
73322;DHT22;61549;37.044;22.128;2022-08-21T02:18:51;29.00;54.20
73322;DHT22;61549;37.044;22.128;2022-08-21T02:21:17;29.00;54.20
73322;DHT22;61549;37.044;22.128;2022-08-21T02:23:43;28.90;54.10
73322;DHT22;61549;37.044;22.128;2022-08-21T02:26:09;28.90;54.20
73322;DHT22;61549;37.044;22.128;2022-08-21T02:28:36;28.90;54.40
73322;DHT22;61549;37.044;22.128;2022-08-21T02:31:03;28.90;54.10
73322;DHT22;61549;37.044;22.128;2022-08-21T02:33:29;28.90;53.50
73322;DHT22;61549;37.044;22.128;2022-08-21T02:35:56;28.90;52.70
73322;DHT22;61549;37.044;22.128;2022-08-21T02:38:24;28.90;52.50
73322;DHT22;61549;37.044;22.128;2022-08-21T02:40:51;28.90;52.40
73322;DHT22;61549;37.044;22.128;2022-08-21T02:43:19;29.00;52.20
73322;DHT22;61549;37.044;22.128;2022-08-21T02:45:46;29.00;52.00
73322;DHT22;61549;37.044;22.128;2022-08-21T02:48:15;29.00;52.40
73322;DHT22;61549;37.044;22.128;2022-08-21T02:50:45;29.00;52.30
73322;DHT22;61549;37.044;22.128;2022-08-21T02:53:13;29.00;52.80
73322;DHT22;61549;37.044;22.128;2022-08-21T02:55:40;28.90;53.40
73322;DHT22;61549;37.044;22.128;2022-08-21T02:58:08;28.90;52.70
73322;DHT22;61549;37.044;22.128;2022-08-21T03:00:34;28.90;53.10
73322;DHT22;61549;37.044;22.128;2022-08-21T03:03:01;28.90;53.20
73322;DHT22;61549;37.044;22.128;2022-08-21T03:05:29;28.80;52.90
73322;DHT22;61549;37.044;22.128;2022-08-21T03:07:57;28.80;53.00
73322;DHT22;61549;37.044;22.128;2022-08-21T03:10:24;28.80;53.00
73322;DHT22;61549;37.044;22.128;2022-08-21T03:12:51;28.80;53.10
73322;DHT22;61549;37.044;22.128;2022-08-21T03:15:21;28.70;53.00
73322;DHT22;61549;37.044;22.128;2022-08-21T03:17:48;28.70;53.10
73322;DHT22;61549;37.044;22.128;2022-08-21T03:20:16;28.70;52.90
73322;DHT22;61549;37.044;22.128;2022-08-21T03:22:42;28.70;52.80
73322;DHT22;61549;37.044;22.128;2022-08-21T03:25:08;28.60;52.80
73322;DHT22;61549;37.044;22.128;2022-08-21T03:27:36;28.60;53.10
73322;DHT22;61549;37.044;22.128;2022-08-21T03:30:04;28.50;53.20
73322;DHT22;61549;37.044;22.128;2022-08-21T03:32:31;28.40;53.40
73322;DHT22;61549;37.044;22.128;2022-08-21T03:34:57;28.40;53.50
73322;DHT22;61549;37.044;22.128;2022-08-21T03:37:24;28.40;53.40
73322;DHT22;61549;37.044;22.128;2022-08-21T03:39:53;28.30;53.30
73322;DHT22;61549;37.044;22.128;2022-08-21T03:42:19;28.30;53.60
73322;DHT22;61549;37.044;22.128;2022-08-21T03:44:45;28.20;53.80
73322;DHT22;61549;37.044;22.128;2022-08-21T03:47:11;28.20;53.90
73322;DHT22;61549;37.044;22.128;2022-08-21T03:49:36;28.10;53.90
73322;DHT22;61549;37.044;22.128;2022-08-21T03:52:03;28.20;54.00
73322;DHT22;61549;37.044;22.128;2022-08-21T03:54:29;28.20;54.00
73322;DHT22;61549;37.044;22.128;2022-08-21T03:56:55;28.20;54.20
73322;DHT22;61549;37.044;22.128;2022-08-21T03:59:21;28.20;54.20
73322;DHT22;61549;37.044;22.128;2022-08-21T04:01:53;28.30;54.30
73322;DHT22;61549;37.044;22.128;2022-08-21T04:04:19;28.30;54.30
73322;DHT22;61549;37.044;22.128;2022-08-21T04:06:45;28.30;54.50
73322;DHT22;61549;37.044;22.128;2022-08-21T04:09:11;28.30;54.40
73322;DHT22;61549;37.044;22.128;2022-08-21T04:11:37;28.30;54.80
73322;DHT22;61549;37.044;22.128;2022-08-21T04:14:03;28.20;55.10
73322;DHT22;61549;37.044;22.128;2022-08-21T04:16:30;28.20;55.40
73322;DHT22;61549;37.044;22.128;2022-08-21T04:18:56;28.20;55.30
73322;DHT22;61549;37.044;22.128;2022-08-21T04:21:23;28.20;55.50
73322;DHT22;61549;37.044;22.128;2022-08-21T04:23:49;28.20;55.60
73322;DHT22;61549;37.044;22.128;2022-08-21T04:26:15;28.20;55.70
73322;DHT22;61549;37.044;22.128;2022-08-21T04:28:41;28.30;55.90
73322;DHT22;61549;37.044;22.128;2022-08-21T04:31:08;28.30;56.10
73322;DHT22;61549;37.044;22.128;2022-08-21T04:33:34;28.30;56.10
73322;DHT22;61549;37.044;22.128;2022-08-21T04:36:00;28.30;56.30
73322;DHT22;61549;37.044;22.128;2022-08-21T04:38:27;28.30;56.40
73322;DHT22;61549;37.044;22.128;2022-08-21T04:40:53;28.30;56.70
73322;DHT22;61549;37.044;22.128;2022-08-21T04:43:19;28.40;56.90
73322;DHT22;61549;37.044;22.128;2022-08-21T04:45:48;28.30;57.00
73322;DHT22;61549;37.044;22.128;2022-08-21T04:48:16;28.30;57.30
73322;DHT22;61549;37.044;22.128;2022-08-21T04:51:06;28.30;57.50
73322;DHT22;61549;37.044;22.128;2022-08-21T04:53:45;28.40;57.50
73322;DHT22;61549;37.044;22.128;2022-08-21T04:56:20;28.40;57.50
73322;DHT22;61549;37.044;22.128;2022-08-21T04:58:47;28.50;57.90
73322;DHT22;61549;37.044;22.128;2022-08-21T05:01:19;28.50;58.10
73322;DHT22;61549;37.044;22.128;2022-08-21T05:03:47;28.50;58.50
73322;DHT22;61549;37.044;22.128;2022-08-21T05:06:15;28.50;58.40
73322;DHT22;61549;37.044;22.128;2022-08-21T05:08:43;28.60;58.40
73322;DHT22;61549;37.044;22.128;2022-08-21T05:11:10;28.60;59.10
73322;DHT22;61549;37.044;22.128;2022-08-21T05:13:37;28.60;59.40
73322;DHT22;61549;37.044;22.128;2022-08-21T05:16:03;28.60;59.10
73322;DHT22;61549;37.044;22.128;2022-08-21T05:18:29;28.60;58.60
73322;DHT22;61549;37.044;22.128;2022-08-21T05:20:55;28.70;58.50
73322;DHT22;61549;37.044;22.128;2022-08-21T05:23:21;28.80;58.10
73322;DHT22;61549;37.044;22.128;2022-08-21T05:25:46;28.90;56.90
73322;DHT22;61549;37.044;22.128;2022-08-21T05:28:12;28.90;56.30
73322;DHT22;61549;37.044;22.128;2022-08-21T05:30:39;29.10;55.30
73322;DHT22;61549;37.044;22.128;2022-08-21T05:33:06;29.20;55.10
73322;DHT22;61549;37.044;22.128;2022-08-21T05:35:33;29.30;55.10
73322;DHT22;61549;37.044;22.128;2022-08-21T05:37:59;29.30;54.40
73322;DHT22;61549;37.044;22.128;2022-08-21T05:40:26;29.40;54.40
73322;DHT22;61549;37.044;22.128;2022-08-21T05:42:53;29.50;54.50
73322;DHT22;61549;37.044;22.128;2022-08-21T05:45:19;29.50;55.20
73322;DHT22;61549;37.044;22.128;2022-08-21T05:47:45;29.50;54.70
73322;DHT22;61549;37.044;22.128;2022-08-21T05:50:11;29.60;54.30
73322;DHT22;61549;37.044;22.128;2022-08-21T05:52:37;29.60;54.40
73322;DHT22;61549;37.044;22.128;2022-08-21T05:55:03;29.70;54.30
73322;DHT22;61549;37.044;22.128;2022-08-21T05:57:29;29.70;53.80
73322;DHT22;61549;37.044;22.128;2022-08-21T05:59:55;29.80;54.50
73322;DHT22;61549;37.044;22.128;2022-08-21T06:02:21;29.80;53.90
73322;DHT22;61549;37.044;22.128;2022-08-21T06:04:47;29.80;52.40
73322;DHT22;61549;37.044;22.128;2022-08-21T06:07:13;29.80;51.40
73322;DHT22;61549;37.044;22.128;2022-08-21T06:09:40;29.70;53.40
73322;DHT22;61549;37.044;22.128;2022-08-21T06:12:07;29.70;53.50
73322;DHT22;61549;37.044;22.128;2022-08-21T06:14:35;29.70;53.40
73322;DHT22;61549;37.044;22.128;2022-08-21T06:17:11;29.60;54.30
73322;DHT22;61549;37.044;22.128;2022-08-21T06:19:38;29.70;54.00
73322;DHT22;61549;37.044;22.128;2022-08-21T06:22:04;29.80;54.40
73322;DHT22;61549;37.044;22.128;2022-08-21T06:24:31;30.00;53.30
73322;DHT22;61549;37.044;22.128;2022-08-21T06:27:07;30.10;50.80
73322;DHT22;61549;37.044;22.128;2022-08-21T06:29:34;30.30;51.10
73322;DHT22;61549;37.044;22.128;2022-08-21T06:32:01;30.30;50.40
73322;DHT22;61549;37.044;22.128;2022-08-21T06:34:36;30.50;49.90
73322;DHT22;61549;37.044;22.128;2022-08-21T06:37:03;30.60;50.00
73322;DHT22;61549;37.044;22.128;2022-08-21T06:39:33;30.80;50.00
73322;DHT22;61549;37.044;22.128;2022-08-21T06:42:01;30.90;48.90
73322;DHT22;61549;37.044;22.128;2022-08-21T06:44:27;31.20;49.10
73322;DHT22;61549;37.044;22.128;2022-08-21T06:46:52;31.40;47.90
73322;DHT22;61549;37.044;22.128;2022-08-21T06:49:18;31.60;47.90
73322;DHT22;61549;37.044;22.128;2022-08-21T06:51:44;31.80;47.70
73322;DHT22;61549;37.044;22.128;2022-08-21T06:54:10;32.00;47.50
73322;DHT22;61549;37.044;22.128;2022-08-21T06:56:42;32.20;47.40
73322;DHT22;61549;37.044;22.128;2022-08-21T06:59:08;32.10;46.40
73322;DHT22;61549;37.044;22.128;2022-08-21T07:01:34;32.20;46.30
73322;DHT22;61549;37.044;22.128;2022-08-21T07:03:59;32.30;47.00
73322;DHT22;61549;37.044;22.128;2022-08-21T07:06:25;32.40;47.30
73322;DHT22;61549;37.044;22.128;2022-08-21T07:08:51;32.60;46.30
73322;DHT22;61549;37.044;22.128;2022-08-21T07:11:23;32.90;45.70
73322;DHT22;61549;37.044;22.128;2022-08-21T07:13:50;33.00;45.50
73322;DHT22;61549;37.044;22.128;2022-08-21T07:16:18;33.10;43.60
73322;DHT22;61549;37.044;22.128;2022-08-21T07:18:44;33.20;44.30
73322;DHT22;61549;37.044;22.128;2022-08-21T07:21:11;33.30;44.50
73322;DHT22;61549;37.044;22.128;2022-08-21T07:23:40;33.30;43.60
73322;DHT22;61549;37.044;22.128;2022-08-21T07:26:07;33.40;43.90
73322;DHT22;61549;37.044;22.128;2022-08-21T07:28:34;33.40;43.10
73322;DHT22;61549;37.044;22.128;2022-08-21T07:31:00;33.40;44.00
73322;DHT22;61549;37.044;22.128;2022-08-21T07:33:28;33.50;43.80
73322;DHT22;61549;37.044;22.128;2022-08-21T07:35:55;33.50;44.50
73322;DHT22;61549;37.044;22.128;2022-08-21T07:38:22;33.50;44.00
73322;DHT22;61549;37.044;22.128;2022-08-21T07:40:49;33.50;44.10
73322;DHT22;61549;37.044;22.128;2022-08-21T07:43:16;33.60;44.50
73322;DHT22;61549;37.044;22.128;2022-08-21T07:45:43;33.70;43.80
73322;DHT22;61549;37.044;22.128;2022-08-21T07:48:12;33.70;44.20
73322;DHT22;61549;37.044;22.128;2022-08-21T07:50:38;33.80;44.20
73322;DHT22;61549;37.044;22.128;2022-08-21T07:55:40;33.80;43.80
73322;DHT22;61549;37.044;22.128;2022-08-21T07:58:06;33.90;43.70
73322;DHT22;61549;37.044;22.128;2022-08-21T08:00:32;33.90;43.60
73322;DHT22;61549;37.044;22.128;2022-08-21T08:03:02;33.90;43.70
73322;DHT22;61549;37.044;22.128;2022-08-21T08:05:29;33.90;43.70
73322;DHT22;61549;37.044;22.128;2022-08-21T08:07:55;34.00;43.70
73322;DHT22;61549;37.044;22.128;2022-08-21T08:10:22;34.00;43.10
73322;DHT22;61549;37.044;22.128;2022-08-21T08:12:48;34.00;43.00
73322;DHT22;61549;37.044;22.128;2022-08-21T08:15:20;34.10;43.20
73322;DHT22;61549;37.044;22.128;2022-08-21T08:17:47;34.20;43.40
73322;DHT22;61549;37.044;22.128;2022-08-21T08:20:15;34.20;43.10
73322;DHT22;61549;37.044;22.128;2022-08-21T08:22:41;34.10;43.50
73322;DHT22;61549;37.044;22.128;2022-08-21T08:25:10;34.20;43.20
73322;DHT22;61549;37.044;22.128;2022-08-21T08:27:37;34.10;42.80
73322;DHT22;61549;37.044;22.128;2022-08-21T08:30:04;34.10;43.00
73322;DHT22;61549;37.044;22.128;2022-08-21T08:32:30;34.10;43.30
73322;DHT22;61549;37.044;22.128;2022-08-21T08:34:56;34.10;43.40
73322;DHT22;61549;37.044;22.128;2022-08-21T08:37:22;34.00;43.70
73322;DHT22;61549;37.044;22.128;2022-08-21T08:39:48;34.20;42.40
73322;DHT22;61549;37.044;22.128;2022-08-21T08:44:47;34.50;42.90
73322;DHT22;61549;37.044;22.128;2022-08-21T08:47:15;34.70;43.00
73322;DHT22;61549;37.044;22.128;2022-08-21T08:49:53;34.80;42.50
73322;DHT22;61549;37.044;22.128;2022-08-21T08:52:27;34.90;42.00
73322;DHT22;61549;37.044;22.128;2022-08-21T08:55:14;34.60;42.30
73322;DHT22;61549;37.044;22.128;2022-08-21T08:57:45;34.40;43.00
73322;DHT22;61549;37.044;22.128;2022-08-21T09:00:14;34.40;43.70
73322;DHT22;61549;37.044;22.128;2022-08-21T09:02:42;34.50;43.10
73322;DHT22;61549;37.044;22.128;2022-08-21T09:05:23;34.60;42.70
73322;DHT22;61549;37.044;22.128;2022-08-21T09:08:20;34.90;42.90
73322;DHT22;61549;37.044;22.128;2022-08-21T09:17:02;35.30;41.30
73322;DHT22;61549;37.044;22.128;2022-08-21T09:27:23;35.80;41.60
73322;DHT22;61549;37.044;22.128;2022-08-21T09:29:53;35.80;41.00
73322;DHT22;61549;37.044;22.128;2022-08-21T09:32:24;36.00;40.70
73322;DHT22;61549;37.044;22.128;2022-08-21T09:35:10;36.00;41.10
73322;DHT22;61549;37.044;22.128;2022-08-21T09:45:33;36.00;42.20
73322;DHT22;61549;37.044;22.128;2022-08-21T09:48:23;36.10;40.40
73322;DHT22;61549;37.044;22.128;2022-08-21T09:51:13;36.30;39.30
73322;DHT22;61549;37.044;22.128;2022-08-21T09:53:48;36.40;40.60
73322;DHT22;61549;37.044;22.128;2022-08-21T09:59:16;36.50;40.70
73322;DHT22;61549;37.044;22.128;2022-08-21T10:01:46;36.50;40.60
73322;DHT22;61549;37.044;22.128;2022-08-21T10:04:13;36.10;41.00
73322;DHT22;61549;37.044;22.128;2022-08-21T10:06:39;36.00;41.40
73322;DHT22;61549;37.044;22.128;2022-08-21T10:09:14;36.20;41.90
73322;DHT22;61549;37.044;22.128;2022-08-21T10:11:56;36.40;41.20
73322;DHT22;61549;37.044;22.128;2022-08-21T10:20:04;37.00;40.70
73322;DHT22;61549;37.044;22.128;2022-08-21T10:25:23;37.20;39.50
73322;DHT22;61549;37.044;22.128;2022-08-21T10:30:56;37.20;40.20
73322;DHT22;61549;37.044;22.128;2022-08-21T10:36:14;36.70;42.30
73322;DHT22;61549;37.044;22.128;2022-08-21T10:41:45;35.70;45.40
73322;DHT22;61549;37.044;22.128;2022-08-21T10:44:39;35.20;47.10
73322;DHT22;61549;37.044;22.128;2022-08-21T10:47:24;34.50;48.10
73322;DHT22;61549;37.044;22.128;2022-08-21T10:50:12;34.10;48.90
73322;DHT22;61549;37.044;22.128;2022-08-21T10:55:18;33.90;47.50
73322;DHT22;61549;37.044;22.128;2022-08-21T11:00:49;33.90;47.30
73322;DHT22;61549;37.044;22.128;2022-08-21T11:06:13;33.70;47.40
73322;DHT22;61549;37.044;22.128;2022-08-21T11:08:53;33.70;48.50
73322;DHT22;61549;37.044;22.128;2022-08-21T11:11:38;33.80;47.20
73322;DHT22;61549;37.044;22.128;2022-08-21T11:14:41;33.90;46.90
73322;DHT22;61549;37.044;22.128;2022-08-21T11:17:16;34.10;46.80
73322;DHT22;61549;37.044;22.128;2022-08-21T11:20:05;34.20;45.40
73322;DHT22;61549;37.044;22.128;2022-08-21T11:22:35;34.30;46.20
73322;DHT22;61549;37.044;22.128;2022-08-21T11:25:14;34.50;45.60
73322;DHT22;61549;37.044;22.128;2022-08-21T11:27:52;34.40;42.90
73322;DHT22;61549;37.044;22.128;2022-08-21T11:30:20;34.50;44.40
73322;DHT22;61549;37.044;22.128;2022-08-21T11:33:18;34.40;45.80
73322;DHT22;61549;37.044;22.128;2022-08-21T11:35:54;34.30;45.00
73322;DHT22;61549;37.044;22.128;2022-08-21T11:38:40;34.30;44.00
73322;DHT22;61549;37.044;22.128;2022-08-21T11:41:28;34.60;42.80
73322;DHT22;61549;37.044;22.128;2022-08-21T11:58:09;34.80;41.60
73322;DHT22;61549;37.044;22.128;2022-08-21T12:00:49;35.00;41.40
73322;DHT22;61549;37.044;22.128;2022-08-21T12:03:29;35.20;41.20
73322;DHT22;61549;37.044;22.128;2022-08-21T12:06:09;35.20;42.10
73322;DHT22;61549;37.044;22.128;2022-08-21T12:08:46;35.00;41.70
73322;DHT22;61549;37.044;22.128;2022-08-21T12:11:24;35.00;42.50
73322;DHT22;61549;37.044;22.128;2022-08-21T12:16:42;35.00;42.50
73322;DHT22;61549;37.044;22.128;2022-08-21T12:24:48;35.20;43.90
73322;DHT22;61549;37.044;22.128;2022-08-21T12:29:53;35.00;44.00
73322;DHT22;61549;37.044;22.128;2022-08-21T12:37:43;35.10;43.90
73322;DHT22;61549;37.044;22.128;2022-08-21T12:40:22;35.00;43.60
73322;DHT22;61549;37.044;22.128;2022-08-21T12:42:51;35.00;44.00
73322;DHT22;61549;37.044;22.128;2022-08-21T12:45:33;35.00;43.50
73322;DHT22;61549;37.044;22.128;2022-08-21T12:48:07;35.00;44.10
73322;DHT22;61549;37.044;22.128;2022-08-21T12:53:56;35.10;43.60
73322;DHT22;61549;37.044;22.128;2022-08-21T12:56:24;35.20;43.70
73322;DHT22;61549;37.044;22.128;2022-08-21T12:59:00;35.40;43.10
73322;DHT22;61549;37.044;22.128;2022-08-21T13:01:55;35.50;43.30
73322;DHT22;61549;37.044;22.128;2022-08-21T13:04:39;35.40;42.80
73322;DHT22;61549;37.044;22.128;2022-08-21T13:07:08;35.40;43.00
73322;DHT22;61549;37.044;22.128;2022-08-21T13:09:53;35.40;43.30
73322;DHT22;61549;37.044;22.128;2022-08-21T13:12:21;35.30;42.90
73322;DHT22;61549;37.044;22.128;2022-08-21T13:14:50;35.30;43.00
73322;DHT22;61549;37.044;22.128;2022-08-21T13:17:19;35.30;42.60
73322;DHT22;61549;37.044;22.128;2022-08-21T13:19:59;35.40;43.20
73322;DHT22;61549;37.044;22.128;2022-08-21T13:22:27;35.20;43.80
73322;DHT22;61549;37.044;22.128;2022-08-21T13:24:53;35.20;44.50
73322;DHT22;61549;37.044;22.128;2022-08-21T13:27:30;35.10;44.60
73322;DHT22;61549;37.044;22.128;2022-08-21T13:30:19;35.10;43.60
73322;DHT22;61549;37.044;22.128;2022-08-21T13:32:54;35.00;43.20
73322;DHT22;61549;37.044;22.128;2022-08-21T13:35:28;34.80;42.90
73322;DHT22;61549;37.044;22.128;2022-08-21T13:37:55;34.90;43.30
73322;DHT22;61549;37.044;22.128;2022-08-21T13:40:46;34.80;43.90
73322;DHT22;61549;37.044;22.128;2022-08-21T13:43:17;34.90;42.80
73322;DHT22;61549;37.044;22.128;2022-08-21T13:46:00;34.90;42.40
73322;DHT22;61549;37.044;22.128;2022-08-21T13:48:30;35.00;42.50
73322;DHT22;61549;37.044;22.128;2022-08-21T13:50:58;35.20;41.90
73322;DHT22;61549;37.044;22.128;2022-08-21T13:53:36;35.30;42.90
73322;DHT22;61549;37.044;22.128;2022-08-21T13:56:03;35.60;42.20
73322;DHT22;61549;37.044;22.128;2022-08-21T13:58:34;35.60;42.30
73322;DHT22;61549;37.044;22.128;2022-08-21T14:01:28;35.60;41.90
73322;DHT22;61549;37.044;22.128;2022-08-21T14:03:59;35.70;41.20
73322;DHT22;61549;37.044;22.128;2022-08-21T14:06:34;35.90;41.30
73322;DHT22;61549;37.044;22.128;2022-08-21T14:09:07;36.10;40.70
73322;DHT22;61549;37.044;22.128;2022-08-21T14:11:34;36.30;40.70
73322;DHT22;61549;37.044;22.128;2022-08-21T14:14:05;36.50;40.10
73322;DHT22;61549;37.044;22.128;2022-08-21T14:16:55;36.70;40.00
73322;DHT22;61549;37.044;22.128;2022-08-21T14:19:27;36.90;39.80
73322;DHT22;61549;37.044;22.128;2022-08-21T14:21:54;37.10;39.50
73322;DHT22;61549;37.044;22.128;2022-08-21T14:26:56;37.30;39.40
73322;DHT22;61549;37.044;22.128;2022-08-21T14:29:26;37.30;39.10
73322;DHT22;61549;37.044;22.128;2022-08-21T14:32:20;37.30;39.70
73322;DHT22;61549;37.044;22.128;2022-08-21T14:34:47;37.50;39.80
73322;DHT22;61549;37.044;22.128;2022-08-21T14:37:22;37.50;39.50
73322;DHT22;61549;37.044;22.128;2022-08-21T14:39:48;37.50;39.10
73322;DHT22;61549;37.044;22.128;2022-08-21T14:42:14;37.60;39.70
73322;DHT22;61549;37.044;22.128;2022-08-21T14:44:40;37.50;40.00
73322;DHT22;61549;37.044;22.128;2022-08-21T14:47:08;37.50;39.70
73322;DHT22;61549;37.044;22.128;2022-08-21T14:49:40;37.40;40.40
73322;DHT22;61549;37.044;22.128;2022-08-21T14:52:06;37.40;40.20
73322;DHT22;61549;37.044;22.128;2022-08-21T14:54:32;37.30;39.80
73322;DHT22;61549;37.044;22.128;2022-08-21T14:57:09;37.30;40.00
73322;DHT22;61549;37.044;22.128;2022-08-21T14:59:37;37.20;39.70
73322;DHT22;61549;37.044;22.128;2022-08-21T15:02:06;37.10;39.50
73322;DHT22;61549;37.044;22.128;2022-08-21T15:04:33;37.00;39.80
73322;DHT22;61549;37.044;22.128;2022-08-21T15:06:59;36.80;39.80
73322;DHT22;61549;37.044;22.128;2022-08-21T15:09:27;36.90;40.00
73322;DHT22;61549;37.044;22.128;2022-08-21T15:11:55;36.80;39.80
73322;DHT22;61549;37.044;22.128;2022-08-21T15:14:25;36.80;40.10
73322;DHT22;61549;37.044;22.128;2022-08-21T15:16:52;36.70;39.90
73322;DHT22;61549;37.044;22.128;2022-08-21T15:19:18;36.60;39.60
73322;DHT22;61549;37.044;22.128;2022-08-21T15:21:44;36.60;39.70
73322;DHT22;61549;37.044;22.128;2022-08-21T15:24:10;36.50;39.60
73322;DHT22;61549;37.044;22.128;2022-08-21T15:26:36;36.50;39.50
73322;DHT22;61549;37.044;22.128;2022-08-21T15:29:06;36.50;39.50
73322;DHT22;61549;37.044;22.128;2022-08-21T15:31:32;36.40;39.90
73322;DHT22;61549;37.044;22.128;2022-08-21T15:33:58;36.30;39.70
73322;DHT22;61549;37.044;22.128;2022-08-21T15:36:25;36.30;40.00
73322;DHT22;61549;37.044;22.128;2022-08-21T15:38:50;36.20;40.30
73322;DHT22;61549;37.044;22.128;2022-08-21T15:41:18;36.20;40.40
73322;DHT22;61549;37.044;22.128;2022-08-21T15:43:50;36.20;40.20
73322;DHT22;61549;37.044;22.128;2022-08-21T15:46:19;36.10;40.50
73322;DHT22;61549;37.044;22.128;2022-08-21T15:48:45;36.10;40.40
73322;DHT22;61549;37.044;22.128;2022-08-21T15:54:34;35.90;40.90
73322;DHT22;61549;37.044;22.128;2022-08-21T15:57:00;35.90;41.40
73322;DHT22;61549;37.044;22.128;2022-08-21T15:59:25;35.70;41.60
73322;DHT22;61549;37.044;22.128;2022-08-21T16:01:52;35.70;41.30
73322;DHT22;61549;37.044;22.128;2022-08-21T16:04:25;35.50;41.90
73322;DHT22;61549;37.044;22.128;2022-08-21T16:06:52;35.40;41.80
73322;DHT22;61549;37.044;22.128;2022-08-21T16:09:18;35.00;41.90
73322;DHT22;61549;37.044;22.128;2022-08-21T16:11:44;34.70;42.70
73322;DHT22;61549;37.044;22.128;2022-08-21T16:14:15;34.60;43.10
73322;DHT22;61549;37.044;22.128;2022-08-21T16:16:42;34.60;43.10
73322;DHT22;61549;37.044;22.128;2022-08-21T16:19:10;34.60;42.70
73322;DHT22;61549;37.044;22.128;2022-08-21T16:21:43;34.60;42.80
73322;DHT22;61549;37.044;22.128;2022-08-21T16:24:09;34.60;42.50
73322;DHT22;61549;37.044;22.128;2022-08-21T16:26:35;34.70;42.40
73322;DHT22;61549;37.044;22.128;2022-08-21T16:29:02;34.70;42.30
73322;DHT22;61549;37.044;22.128;2022-08-21T16:31:30;34.70;42.30
73322;DHT22;61549;37.044;22.128;2022-08-21T16:33:56;34.50;42.50
73322;DHT22;61549;37.044;22.128;2022-08-21T16:36:51;34.40;42.90
73322;DHT22;61549;37.044;22.128;2022-08-21T16:39:17;34.40;42.80
73322;DHT22;61549;37.044;22.128;2022-08-21T16:41:43;34.30;43.20
73322;DHT22;61549;37.044;22.128;2022-08-21T16:44:09;34.30;42.70
73322;DHT22;61549;37.044;22.128;2022-08-21T16:46:38;34.20;43.00
73322;DHT22;61549;37.044;22.128;2022-08-21T16:49:04;34.10;43.30
73322;DHT22;61549;37.044;22.128;2022-08-21T16:52:03;34.10;42.80
73322;DHT22;61549;37.044;22.128;2022-08-21T16:54:30;34.00;42.30
73322;DHT22;61549;37.044;22.128;2022-08-21T16:56:57;34.00;42.60
73322;DHT22;61549;37.044;22.128;2022-08-21T16:59:23;34.00;42.90
73322;DHT22;61549;37.044;22.128;2022-08-21T17:01:58;33.90;43.40
73322;DHT22;61549;37.044;22.128;2022-08-21T17:04:24;33.70;43.70
73322;DHT22;61549;37.044;22.128;2022-08-21T17:06:50;33.60;43.90
73322;DHT22;61549;37.044;22.128;2022-08-21T17:09:17;33.80;43.80